Time;durP1;ratioP1;P1;durP2;ratioP2;P2;SDS_P1;SDS_P2;PMS_P1;PMS_P2;Temp;Humidity;BMP_temperature;BMP_pressure;BME280_temperature;BME280_humidity;BME280_pressure;Samples;Min_cycle;Max_cycle;Signal;HPM_P1;HPM_P2
2023/03/22 00:02:17;;;;;;;17.58;7.65;;;;;;;13.53;100.00;96167.72;5043403;28;20891;-47
2023/03/22 00:04:45;;;;;;;12.30;6.88;;;;;;;13.51;100.00;96159.13;5044967;28;20091;-48
2023/03/22 00:07:15;;;;;;;10.73;5.65;;;;;;;13.68;100.00;96164.38;5046865;28;20076;-51
2023/03/22 00:09:43;;;;;;;15.38;8.05;;;;;;;13.62;100.00;96168.50;5048070;28;20093;-47
2023/03/22 00:12:12;;;;;;;12.70;6.45;;;;;;;13.63;100.00;96161.41;5046850;28;20084;-50
2023/03/22 00:14:40;;;;;;;12.68;7.07;;;;;;;13.66;100.00;96161.91;5046831;28;20077;-49
2023/03/22 00:17:08;;;;;;;20.30;9.70;;;;;;;13.73;100.00;96156.75;5044194;28;20090;-46
2023/03/22 00:19:37;;;;;;;13.75;7.43;;;;;;;13.91;100.00;96148.53;5048379;28;20088;-50
2023/03/22 00:22:05;;;;;;;17.70;8.95;;;;;;;13.97;100.00;96146.03;5045762;28;20099;-53
2023/03/22 00:24:35;;;;;;;16.65;7.88;;;;;;;14.22;100.00;96141.41;5048506;28;20088;-48
2023/03/22 00:27:03;;;;;;;17.52;9.52;;;;;;;14.23;100.00;96144.88;5045297;28;20085;-51
2023/03/22 00:29:31;;;;;;;14.40;8.32;;;;;;;14.30;100.00;96132.56;5043037;28;20530;-47
2023/03/22 00:32:00;;;;;;;16.88;8.75;;;;;;;14.40;100.00;96133.16;5044141;28;20092;-50
2023/03/22 00:34:31;;;;;;;11.05;7.10;;;;;;;14.76;100.00;96139.72;5046579;28;20099;-49
2023/03/22 00:36:59;;;;;;;12.85;7.32;;;;;;;14.73;100.00;96132.97;5043478;28;20080;-55
2023/03/22 00:39:27;;;;;;;17.05;9.68;;;;;;;14.93;100.00;96134.13;5040357;28;20085;-50
2023/03/22 00:41:57;;;;;;;13.05;7.95;;;;;;;15.21;100.00;96122.91;5044181;28;20546;-52
2023/03/22 00:44:25;;;;;;;17.90;9.82;;;;;;;15.21;98.00;96122.91;5044839;28;20482;-45
2023/03/22 00:46:54;;;;;;;17.60;10.10;;;;;;;15.26;96.67;96114.38;5045724;28;20490;-53
2023/03/22 00:49:24;;;;;;;16.73;10.68;;;;;;;15.28;95.52;96115.84;5048270;28;20120;-51
2023/03/22 00:51:52;;;;;;;13.57;8.18;;;;;;;15.42;93.90;96104.41;5044815;28;20084;-53
2023/03/22 00:54:21;;;;;;;19.35;11.88;;;;;;;15.51;92.15;96112.28;5045218;28;20096;-51
2023/03/22 00:56:49;;;;;;;21.75;15.13;;;;;;;15.48;91.60;96102.81;5044961;28;20080;-50
2023/03/22 00:59:19;;;;;;;38.13;28.30;;;;;;;15.58;91.85;96108.69;5046464;28;20084;-45
2023/03/22 01:01:47;;;;;;;25.20;17.50;;;;;;;15.40;91.14;96103.75;5046446;28;20479;-51
2023/03/22 01:04:16;;;;;;;57.72;35.80;;;;;;;15.39;91.86;96099.44;5042177;28;20124;-46
2023/03/22 01:06:46;;;;;;;28.20;19.98;;;;;;;15.48;91.34;96097.50;5045827;28;20076;-48
2023/03/22 01:09:14;;;;;;;45.47;26.85;;;;;;;15.53;90.22;96100.44;5046132;28;20493;-47
2023/03/22 01:11:43;;;;;;;31.73;22.27;;;;;;;15.66;89.84;96099.84;5036905;28;20100;-46
2023/03/22 01:14:12;;;;;;;35.92;21.70;;;;;;;15.65;90.03;96104.28;5046066;28;20084;-52
2023/03/22 01:16:42;;;;;;;36.45;24.80;;;;;;;15.84;90.40;96105.59;5043188;28;20085;-48
2023/03/22 01:19:10;;;;;;;41.10;26.07;;;;;;;15.66;90.83;96113.94;5041359;28;20498;-44
2023/03/22 01:21:39;;;;;;;34.25;28.25;;;;;;;15.56;94.35;96113.38;5046209;28;20091;-49
2023/03/22 01:24:08;;;;;;;26.38;17.20;;;;;;;15.76;94.98;96110.16;5043513;28;20077;-46
2023/03/22 01:26:37;;;;;;;20.60;14.95;;;;;;;15.75;95.00;96116.50;5045357;28;20080;-53
2023/03/22 01:29:05;;;;;;;21.48;11.75;;;;;;;15.83;94.24;96113.75;5043071;28;20084;-52
2023/03/22 01:31:34;;;;;;;13.65;8.82;;;;;;;15.88;93.78;96109.50;5048753;28;20087;-54
2023/03/22 01:34:04;;;;;;;17.60;9.70;;;;;;;16.11;94.33;96101.41;5044708;28;20088;-48
2023/03/22 01:36:32;;;;;;;16.85;8.98;;;;;;;16.05;91.80;96103.97;5040740;28;20489;-51
2023/03/22 01:39:00;;;;;;;32.80;14.73;;;;;;;16.11;90.75;96095.25;5042501;28;20103;-52
2023/03/22 01:41:28;;;;;;;14.07;7.15;;;;;;;16.13;89.68;96093.22;5041802;28;20088;-50
2023/03/22 01:44:11;;;;;;;13.10;8.57;;;;;;;16.46;88.15;96098.06;5041648;28;20084;-50
2023/03/22 01:46:40;;;;;;;15.95;7.35;;;;;;;16.22;88.15;96097.41;5042658;28;20079;-48
2023/03/22 01:49:14;;;;;;;13.97;7.33;;;;;;;16.46;86.64;96100.72;5044448;28;20083;-49
2023/03/22 01:51:44;;;;;;;15.63;8.50;;;;;;;16.38;88.74;96099.84;5042747;28;20084;-50
2023/03/22 01:54:17;;;;;;;18.08;8.90;;;;;;;16.51;88.69;96101.78;5045333;28;20077;-51
2023/03/22 01:56:45;;;;;;;14.40;7.72;;;;;;;16.39;87.40;96092.69;5042402;28;20081;-53
2023/03/22 01:59:14;;;;;;;24.98;11.25;;;;;;;16.41;90.17;96087.16;5045265;28;20089;-50
2023/03/22 02:01:45;;;;;;;10.48;6.93;;;;;;;16.31;88.72;96084.78;5040939;28;20972;-49
2023/03/22 02:04:18;;;;;;;19.27;10.88;;;;;;;16.50;87.73;96094.00;5044077;28;20080;-54
2023/03/22 02:06:47;;;;;;;14.35;8.95;;;;;;;16.22;97.05;96093.94;5042126;28;20077;-46
2023/03/22 02:09:20;;;;;;;21.60;12.05;;;;;;;16.21;100.00;96085.13;5043924;28;20085;-48
2023/03/22 02:11:51;;;;;;;15.20;9.32;;;;;;;16.23;100.00;96090.25;5045612;28;20107;-49
2023/03/22 02:14:41;;;;;;;12.73;7.40;;;;;;;16.40;100.00;96077.53;5046225;28;20084;-46
2023/03/22 02:17:19;;;;;;;22.42;12.38;;;;;;;16.33;100.00;96082.78;5037991;28;20045;-47
2023/03/22 02:20:21;;;;;;;11.32;6.80;;;;;;;16.37;94.81;96076.88;5045052;28;20077;-50
2023/03/22 02:23:18;;;;;;;9.80;5.78;;;;;;;16.34;91.82;96082.63;5032981;28;20596;-49
2023/03/22 02:26:26;;;;;;;10.68;6.13;;;;;;;16.34;91.19;96081.75;5008262;28;20550;-54
2023/03/22 02:28:56;;;;;;;10.43;6.25;;;;;;;16.20;91.85;96074.66;5038523;28;20089;-55
2023/03/22 02:32:09;;;;;;;12.73;5.93;;;;;;;16.27;90.28;96081.69;5042060;28;20095;-50
2023/03/22 02:35:34;;;;;;;10.02;6.15;;;;;;;16.19;90.91;96081.00;5035940;28;20792;-53
2023/03/22 02:38:24;;;;;;;10.75;5.65;;;;;;;15.97;95.21;96082.84;4997564;28;20825;-52
2023/03/22 02:40:56;;;;;;;8.48;5.22;;;;;;;15.81;96.66;96074.03;5001099;28;20549;-50
2023/03/22 02:43:33;;;;;;;10.32;5.65;;;;;;;15.73;98.12;96076.81;5034175;28;20092;-47
2023/03/22 02:46:05;;;;;;;8.02;5.50;;;;;;;15.65;100.00;96076.88;5044524;28;20084;-51
2023/03/22 02:48:38;;;;;;;11.00;5.95;;;;;;;15.58;100.00;96083.94;5043300;28;20095;-50
2023/03/22 02:51:09;;;;;;;10.73;5.78;;;;;;;15.50;100.00;96078.75;5043897;28;20462;-47
2023/03/22 02:53:42;;;;;;;9.10;5.50;;;;;;;15.53;100.00;96073.88;5046556;28;20095;-52
2023/03/22 02:56:13;;;;;;;8.10;5.00;;;;;;;15.55;100.00;96079.00;5046283;28;20080;-50
2023/03/22 02:58:45;;;;;;;9.18;5.75;;;;;;;15.52;100.00;96082.03;5048582;28;20077;-44
2023/03/22 03:01:18;;;;;;;10.35;6.20;;;;;;;15.51;100.00;96086.50;5048041;28;20081;-45
2023/03/22 03:03:49;;;;;;;7.57;5.25;;;;;;;15.51;100.00;96085.69;5048987;28;20084;-49
2023/03/22 03:06:20;;;;;;;9.18;5.53;;;;;;;15.53;100.00;96084.50;5047730;28;20073;-48
2023/03/22 03:08:50;;;;;;;10.18;5.45;;;;;;;15.51;100.00;96091.00;5049486;28;20053;-52
2023/03/22 03:11:21;;;;;;;9.48;5.85;;;;;;;15.57;100.00;96090.28;5045713;28;20080;-50
2023/03/22 03:13:49;;;;;;;7.60;4.93;;;;;;;15.50;100.00;96086.72;5048950;28;20088;-48
2023/03/22 03:16:20;;;;;;;10.75;5.72;;;;;;;15.53;100.00;96086.34;5048195;28;20083;-46
2023/03/22 03:18:52;;;;;;;7.88;5.03;;;;;;;15.49;99.38;96085.06;5048789;28;20530;-51
2023/03/22 03:21:28;;;;;;;9.80;5.65;;;;;;;15.46;99.50;96082.78;5047089;28;20088;-55
2023/03/22 03:24:05;;;;;;;11.18;5.40;;;;;;;15.35;100.00;96078.75;5053366;28;20088;-51
2023/03/22 03:26:39;;;;;;;8.07;5.22;;;;;;;15.29;100.00;96080.31;5045599;28;20080;-49
2023/03/22 03:29:11;;;;;;;8.68;5.47;;;;;;;15.27;100.00;96082.31;5049030;28;20107;-50
2023/03/22 03:31:43;;;;;;;10.30;5.03;;;;;;;15.30;100.00;96083.78;5051384;28;20080;-48
2023/03/22 03:34:16;;;;;;;8.27;5.13;;;;;;;15.42;100.00;96074.34;5045341;28;20073;-50
2023/03/22 03:36:49;;;;;;;11.38;5.18;;;;;;;15.50;100.00;96076.09;5045453;28;20080;-50
2023/03/22 03:39:18;;;;;;;8.63;5.60;;;;;;;15.55;100.00;96071.03;5047960;28;20543;-50
2023/03/22 03:41:50;;;;;;;8.43;5.28;;;;;;;15.62;100.00;96069.28;5048019;28;20085;-50
2023/03/22 03:44:19;;;;;;;7.57;5.05;;;;;;;15.59;100.00;96074.97;5047135;28;20080;-48
2023/03/22 03:46:47;;;;;;;9.68;5.47;;;;;;;15.60;100.00;96071.31;5048363;28;20082;-47
2023/03/22 03:49:16;;;;;;;10.98;6.00;;;;;;;15.58;100.00;96082.09;5045125;28;20089;-50
2023/03/22 03:51:47;;;;;;;7.10;4.97;;;;;;;15.65;99.97;96076.88;5048258;28;20103;-48
2023/03/22 03:54:15;;;;;;;7.60;5.15;;;;;;;15.51;100.00;96081.19;5045213;28;20075;-49
2023/03/22 03:56:43;;;;;;;10.52;5.93;;;;;;;15.53;100.00;96081.84;5045082;28;20076;-53
2023/03/22 03:59:14;;;;;;;8.43;5.35;;;;;;;15.57;100.00;96082.31;5045795;28;20077;-54
2023/03/22 04:01:49;;;;;;;8.77;5.18;;;;;;;15.46;100.00;96080.13;5042770;28;20080;-52
2023/03/22 04:04:18;;;;;;;8.95;5.65;;;;;;;15.40;100.00;96079.84;5047771;28;20076;-51
2023/03/22 04:06:46;;;;;;;12.43;5.97;;;;;;;15.30;100.00;96078.47;5047909;28;20095;-49
2023/03/22 04:09:15;;;;;;;8.38;5.63;;;;;;;15.18;100.00;96072.81;5048722;28;20088;-57
2023/03/22 04:11:43;;;;;;;9.50;6.05;;;;;;;15.09;100.00;96069.38;5042090;28;20088;-50
2023/03/22 04:14:12;;;;;;;8.73;5.35;;;;;;;15.10;100.00;96072.88;5046080;28;20088;-53
2023/03/22 04:16:41;;;;;;;8.77;5.53;;;;;;;14.92;100.00;96078.53;5046142;28;20073;-44
2023/03/22 04:19:09;;;;;;;9.23;5.80;;;;;;;14.85;100.00;96072.28;5046076;28;20083;-52
2023/03/22 04:21:38;;;;;;;10.20;5.50;;;;;;;14.78;100.00;96079.34;5046087;28;20539;-56
2023/03/22 04:24:07;;;;;;;9.65;5.38;;;;;;;14.73;100.00;96074.56;5044979;28;20206;-54
2023/03/22 04:26:35;;;;;;;11.65;5.20;;;;;;;14.68;100.00;96079.59;5048945;28;20087;-46
2023/03/22 04:29:04;;;;;;;9.80;5.32;;;;;;;14.62;100.00;96077.63;5046272;28;20088;-51
2023/03/22 04:31:34;;;;;;;9.85;5.35;;;;;;;14.66;100.00;96068.34;5043921;28;20084;-47
2023/03/22 04:34:04;;;;;;;7.75;4.95;;;;;;;14.51;100.00;96070.09;5046035;28;20084;-46
2023/03/22 04:36:35;;;;;;;9.48;5.43;;;;;;;14.49;100.00;96073.75;5049189;28;20119;-52
2023/03/22 04:39:04;;;;;;;;;;;;;;;14.69;100.00;96063.50;5050318;28;20084;-49
2023/03/22 04:41:33;;;;;;;7.25;5.20;;;;;;;14.29;100.00;96077.88;5049353;28;19967;-49
2023/03/22 04:44:02;;;;;;;10.82;5.15;;;;;;;14.25;100.00;96066.81;5049048;28;20498;-52
2023/03/22 04:46:31;;;;;;;9.98;4.95;;;;;;;14.22;100.00;96080.41;5048498;28;20084;-51
2023/03/22 04:49:02;;;;;;;8.82;5.22;;;;;;;14.17;100.00;96072.16;5047076;28;20557;-48
2023/03/22 04:51:30;;;;;;;10.23;5.43;;;;;;;14.01;100.00;96074.94;5047697;28;20112;-49
2023/03/22 04:53:59;;;;;;;11.68;5.90;;;;;;;13.93;100.00;96073.13;5046144;28;20472;-49
2023/03/22 04:56:27;;;;;;;11.07;6.30;;;;;;;13.87;100.00;96071.19;5048772;28;20538;-49
2023/03/22 04:58:55;;;;;;;11.13;5.50;;;;;;;13.83;100.00;96069.06;5049032;28;20095;-56
2023/03/22 05:01:24;;;;;;;12.40;5.90;;;;;;;13.78;100.00;96075.69;5046346;28;20080;-44
2023/03/22 05:03:52;;;;;;;11.77;6.45;;;;;;;13.73;100.00;96069.28;5047515;28;20076;-45
2023/03/22 05:06:22;;;;;;;14.57;7.05;;;;;;;13.88;100.00;96072.03;5044755;28;20819;-47
2023/03/22 05:08:50;;;;;;;12.88;7.05;;;;;;;13.71;100.00;96072.09;5046199;28;20099;-50
2023/03/22 05:11:19;;;;;;;14.27;6.90;;;;;;;13.79;100.00;96073.88;5042510;28;20112;-47
2023/03/22 05:13:47;;;;;;;13.95;7.00;;;;;;;13.75;100.00;96077.88;5046615;28;20068;-44
2023/03/22 05:16:15;;;;;;;15.70;7.57;;;;;;;13.73;100.00;96078.06;5044055;28;20144;-49
2023/03/22 05:18:44;;;;;;;13.77;6.63;;;;;;;13.69;100.00;96081.22;5044899;28;20562;-51
2023/03/22 05:21:14;;;;;;;11.02;6.05;;;;;;;13.76;100.00;96079.53;5043833;28;20119;-50
2023/03/22 05:23:45;;;;;;;12.57;6.80;;;;;;;13.84;100.00;96079.50;5040649;28;20385;-50
2023/03/22 05:26:14;;;;;;;13.88;7.53;;;;;;;13.76;100.00;96077.72;5043256;28;20538;-48
2023/03/22 05:28:43;;;;;;;13.80;6.88;;;;;;;13.75;100.00;96086.66;5047696;28;20080;-48
2023/03/22 05:31:13;;;;;;;12.32;5.97;;;;;;;13.85;100.00;96085.63;5044240;28;20072;-49
2023/03/22 05:33:42;;;;;;;13.68;5.93;;;;;;;13.93;100.00;96085.56;5041240;28;20068;-47
2023/03/22 05:36:11;;;;;;;13.52;6.20;;;;;;;13.98;100.00;96089.34;5042481;28;20080;-49
2023/03/22 05:38:40;;;;;;;18.10;6.90;;;;;;;13.95;100.00;96094.19;5039218;28;20089;-52
2023/03/22 05:41:09;;;;;;;10.07;5.53;;;;;;;14.08;100.00;96091.78;5044942;28;20077;-47
2023/03/22 05:43:38;;;;;;;10.23;5.07;;;;;;;14.01;100.00;96089.00;5044738;28;20104;-55
2023/03/22 05:46:07;;;;;;;9.55;4.90;;;;;;;14.08;100.00;96089.13;5042690;28;20084;-55
2023/03/22 05:48:35;;;;;;;9.55;5.30;;;;;;;14.11;100.00;96086.13;5044818;28;20077;-50
2023/03/22 05:51:06;;;;;;;10.00;5.30;;;;;;;14.22;100.00;96082.25;5043600;28;20076;-50
2023/03/22 05:53:34;;;;;;;9.07;4.95;;;;;;;14.20;100.00;96092.19;5044485;28;20076;-50
2023/03/22 05:56:03;;;;;;;11.40;5.85;;;;;;;14.19;100.00;96088.72;5044480;28;20143;-47
2023/03/22 05:58:33;;;;;;;9.65;5.47;;;;;;;14.30;100.00;96087.47;5044984;28;20092;-54
2023/03/22 06:01:06;;;;;;;9.13;4.78;;;;;;;14.37;100.00;96088.41;5042834;28;20084;-50
2023/03/22 06:03:34;;;;;;;8.10;5.05;;;;;;;14.29;100.00;96092.97;5045295;28;20084;-48
2023/03/22 06:06:05;;;;;;;12.50;5.43;;;;;;;14.37;100.00;96088.41;5038807;28;20080;-46
2023/03/22 06:08:34;;;;;;;11.15;5.28;;;;;;;14.50;100.00;96098.47;5045385;28;20084;-52
2023/03/22 06:11:02;;;;;;;9.88;5.38;;;;;;;14.58;100.00;96092.28;5042315;28;20510;-50
2023/03/22 06:13:30;;;;;;;13.32;5.82;;;;;;;14.65;100.00;96082.59;5043405;28;20089;-50
2023/03/22 06:16:01;;;;;;;12.02;5.22;;;;;;;14.94;100.00;96087.97;5043918;28;20104;-52
2023/03/22 06:18:30;;;;;;;11.93;6.30;;;;;;;14.98;100.00;96080.47;5039032;28;20083;-50
2023/03/22 06:20:58;;;;;;;9.40;5.38;;;;;;;15.06;100.00;96084.88;5044190;28;20542;-47
2023/03/22 06:23:26;;;;;;;11.07;5.43;;;;;;;15.17;100.00;96087.06;5043061;28;20085;-44
2023/03/22 06:25:55;;;;;;;9.75;5.50;;;;;;;15.31;100.00;96082.75;5043338;28;20156;-50
2023/03/22 06:28:28;;;;;;;10.57;5.70;;;;;;;15.30;100.00;96091.75;5043389;28;20088;-50
2023/03/22 06:30:56;;;;;;;8.43;4.55;;;;;;;15.43;100.00;96079.47;5042919;28;20081;-49
2023/03/22 06:33:26;;;;;;;9.88;5.30;;;;;;;15.69;100.00;96080.00;5041443;28;20088;-45
2023/03/22 06:35:54;;;;;;;10.25;5.38;;;;;;;15.73;99.04;96082.13;5044813;28;20081;-48
2023/03/22 06:38:22;;;;;;;14.27;5.70;;;;;;;15.87;99.54;96083.13;5040655;28;20088;-48
2023/03/22 06:40:51;;;;;;;11.00;4.90;;;;;;;16.08;97.59;96079.66;5043916;28;20085;-48
2023/03/22 06:43:19;;;;;;;13.00;5.35;;;;;;;16.27;95.75;96084.34;5043675;28;20103;-47
2023/03/22 06:45:48;;;;;;;7.45;4.32;;;;;;;16.52;89.92;96084.81;5041534;28;20249;-54
2023/03/22 06:48:16;;;;;;;8.32;4.72;;;;;;;16.65;86.29;96083.28;5042240;28;20091;-48
2023/03/22 06:50:46;;;;;;;11.10;4.95;;;;;;;16.78;85.40;96080.75;5041550;28;20534;-47
2023/03/22 06:53:14;;;;;;;11.57;4.65;;;;;;;16.96;84.61;96080.28;5042115;28;20507;-49
2023/03/22 06:55:42;;;;;;;10.68;4.75;;;;;;;17.07;81.98;96090.41;5038587;28;20077;-47
2023/03/22 06:58:11;;;;;;;6.85;4.40;;;;;;;17.19;79.30;96085.38;5044025;28;20526;-50
2023/03/22 07:00:40;;;;;;;8.50;4.50;;;;;;;17.38;77.36;96086.50;5042876;28;20076;-50
2023/03/22 07:03:08;;;;;;;11.27;4.60;;;;;;;17.53;76.50;96089.88;5042242;28;20084;-51
2023/03/22 07:05:37;;;;;;;9.18;4.18;;;;;;;17.73;75.69;96090.78;5043070;28;20081;-51
2023/03/22 07:08:07;;;;;;;8.35;4.03;;;;;;;18.08;73.63;96093.41;5037250;28;20085;-48
2023/03/22 07:10:35;;;;;;;7.20;4.13;;;;;;;18.10;69.94;96090.53;5038838;28;20092;-52
2023/03/22 07:13:03;;;;;;;7.05;4.43;;;;;;;18.23;68.49;96088.72;5045242;28;20474;-54
2023/03/22 07:15:33;;;;;;;8.52;4.35;;;;;;;18.47;66.59;96095.34;5038809;28;20084;-49
2023/03/22 07:18:01;;;;;;;9.48;4.00;;;;;;;18.53;65.44;96091.06;5043685;28;20087;-52
2023/03/22 07:20:31;;;;;;;8.13;4.30;;;;;;;18.54;66.43;96090.03;5043631;28;20091;-47
2023/03/22 07:23:00;;;;;;;8.30;4.37;;;;;;;18.62;64.70;96087.16;5041365;28;20124;-47
2023/03/22 07:25:29;;;;;;;5.45;3.58;;;;;;;18.73;60.81;96096.47;5043176;28;20511;-48
2023/03/22 07:27:59;;;;;;;7.50;4.00;;;;;;;18.80;57.98;96094.59;5045131;28;20088;-48
2023/03/22 07:30:27;;;;;;;8.95;4.13;;;;;;;18.64;55.61;96093.13;5039118;28;20077;-45
2023/03/22 07:32:55;;;;;;;7.32;3.80;;;;;;;18.76;56.29;96089.88;5042420;28;20652;-46
2023/03/22 07:35:24;;;;;;;8.32;3.10;;;;;;;18.50;56.97;96094.94;5038824;28;20084;-45
2023/03/22 07:37:54;;;;;;;6.95;3.80;;;;;;;18.55;56.50;96097.03;5037266;28;20085;-45
2023/03/22 07:40:22;;;;;;;8.18;3.65;;;;;;;18.40;59.14;96091.84;5046969;28;20460;-52
2023/03/22 07:42:52;;;;;;;7.13;3.22;;;;;;;18.52;61.53;96097.44;5048764;28;20084;-50
2023/03/22 07:45:23;;;;;;;13.75;4.13;;;;;;;18.40;60.21;96091.84;5041863;28;20073;-52
2023/03/22 07:47:51;;;;;;;6.45;3.50;;;;;;;18.35;60.05;96096.16;5044591;28;20170;-49
2023/03/22 07:50:19;;;;;;;6.35;3.92;;;;;;;18.58;59.85;96095.78;5045248;28;20088;-47
2023/03/22 07:52:48;;;;;;;7.35;3.63;;;;;;;18.65;55.79;96091.25;5046369;28;20095;-51
2023/03/22 07:55:16;;;;;;;7.07;3.85;;;;;;;18.59;58.64;96087.56;5043428;28;20084;-52
2023/03/22 07:57:45;;;;;;;8.27;3.85;;;;;;;18.69;57.00;96089.84;5045716;28;20088;-48
2023/03/22 08:00:16;;;;;;;6.10;3.97;;;;;;;19.19;56.47;96087.59;5045342;28;20099;-53
2023/03/22 08:02:44;;;;;;;6.63;3.60;;;;;;;19.03;56.15;96088.88;5046253;28;20084;-48
2023/03/22 08:05:13;;;;;;;5.45;3.00;;;;;;;18.80;57.78;96093.78;5047162;28;20087;-55
2023/03/22 08:07:41;;;;;;;4.80;3.13;;;;;;;19.10;60.89;96089.69;5045020;28;20092;-52
2023/03/22 08:10:10;;;;;;;5.60;3.60;;;;;;;19.17;54.35;96090.50;5045964;28;20080;-46
2023/03/22 08:12:39;;;;;;;7.95;4.22;;;;;;;19.17;57.10;96081.66;5046924;28;20471;-51
2023/03/22 08:15:09;;;;;;;7.85;3.72;;;;;;;19.16;54.70;96080.81;5044222;28;20170;-51
2023/03/22 08:17:38;;;;;;;8.50;4.47;;;;;;;19.32;52.83;96076.06;5046712;28;20080;-49
2023/03/22 08:20:08;;;;;;;8.05;3.80;;;;;;;19.36;52.44;96077.28;5046681;28;20103;-51
2023/03/22 08:22:37;;;;;;;11.18;5.32;;;;;;;18.81;54.87;96092.75;5039669;28;20081;-50
2023/03/22 08:25:06;;;;;;;5.03;2.60;;;;;;;18.48;58.94;96091.69;5048154;28;20084;-48
2023/03/22 08:27:34;;;;;;;8.50;4.57;;;;;;;18.88;58.60;96093.56;5044784;28;20077;-46
2023/03/22 08:30:04;;;;;;;5.88;3.40;;;;;;;18.83;60.16;96088.03;5044060;28;20084;-51
2023/03/22 08:32:33;;;;;;;7.18;3.67;;;;;;;19.09;59.80;96081.84;5044774;28;20092;-49
2023/03/22 08:35:05;;;;;;;5.60;3.30;;;;;;;19.36;58.42;96078.09;5042656;28;20102;-50
2023/03/22 08:37:33;;;;;;;7.25;3.17;;;;;;;19.33;59.25;96080.38;5042861;28;20099;-51
2023/03/22 08:40:05;;;;;;;5.18;3.15;;;;;;;19.51;57.21;96085.91;5046121;28;20091;-53
2023/03/22 08:42:33;;;;;;;7.68;3.28;;;;;;;19.74;53.08;96079.25;5044273;28;20100;-51
2023/03/22 08:45:02;;;;;;;6.47;3.08;;;;;;;19.86;53.97;96083.75;5045063;28;20099;-48
2023/03/22 08:47:30;;;;;;;4.13;2.08;;;;;;;19.61;56.42;96082.75;5041308;28;20073;-44
2023/03/22 08:49:58;;;;;;;7.97;3.63;;;;;;;20.29;52.34;96076.94;5039160;28;20081;-50
2023/03/22 08:52:28;;;;;;;5.70;3.35;;;;;;;20.60;52.50;96070.81;5046260;28;20091;-51
2023/03/22 08:54:57;;;;;;;5.45;3.97;;;;;;;20.98;49.84;96080.63;5043988;28;20072;-48
2023/03/22 08:57:26;;;;;;;5.47;3.65;;;;;;;20.98;49.49;96068.03;5043939;28;20081;-48
2023/03/22 08:59:56;;;;;;;6.35;3.47;;;;;;;20.55;49.97;96078.69;5043180;28;20081;-50
2023/03/22 09:02:25;;;;;;;6.05;3.40;;;;;;;20.66;54.00;96069.13;5046232;28;20592;-49
2023/03/22 09:04:53;;;;;;;4.82;3.25;;;;;;;20.78;51.76;96067.38;5049533;28;20478;-50
2023/03/22 09:07:23;;;;;;;5.15;3.50;;;;;;;20.93;49.37;96069.75;5045823;28;20052;-47
2023/03/22 09:09:52;;;;;;;6.65;3.67;;;;;;;21.17;49.50;96068.09;5043478;28;20570;-50
2023/03/22 09:12:21;;;;;;;6.77;3.40;;;;;;;21.12;45.82;96070.59;5045683;28;20092;-50
2023/03/22 09:14:49;;;;;;;4.80;2.80;;;;;;;21.10;49.14;96063.59;5042458;28;20485;-52
2023/03/22 09:17:17;;;;;;;7.13;3.50;;;;;;;21.30;45.45;96060.72;5045042;28;20483;-50
2023/03/22 09:19:49;;;;;;;4.55;2.83;;;;;;;21.14;47.73;96063.97;5042633;28;20118;-50
2023/03/22 09:22:29;;;;;;;4.22;2.40;;;;;;;20.90;46.97;96067.50;5045938;28;20080;-51
2023/03/22 09:24:59;;;;;;;4.80;2.63;;;;;;;20.98;45.84;96064.53;5042328;28;20085;-58
2023/03/22 09:27:27;;;;;;;5.53;3.57;;;;;;;21.91;42.99;96058.22;5048472;28;20087;-51
2023/03/22 09:29:56;;;;;;;3.78;2.47;;;;;;;21.22;44.91;96058.31;5041481;28;20080;-45
2023/03/22 09:32:24;;;;;;;4.53;2.13;;;;;;;20.99;45.32;96045.56;5044634;28;20087;-52
2023/03/22 09:34:53;;;;;;;5.82;3.15;;;;;;;21.29;44.83;96044.84;5045495;28;20085;-45
2023/03/22 09:37:21;;;;;;;5.63;3.50;;;;;;;22.05;42.73;96046.25;5043274;28;20124;-45
2023/03/22 09:40:11;;;;;;;4.97;2.63;;;;;;;21.61;42.53;96047.41;5043822;28;20087;-46
2023/03/22 09:42:41;;;;;;;5.50;3.30;;;;;;;21.96;42.20;96040.38;5041041;28;20080;-52
2023/03/22 09:45:15;;;;;;;3.33;1.98;;;;;;;21.59;43.18;96033.41;5046335;28;20103;-55
2023/03/22 09:47:45;;;;;;;4.47;3.22;;;;;;;21.84;41.76;96044.06;5041469;28;20080;-51
2023/03/22 09:50:14;;;;;;;;;;;;;;;21.50;42.18;96038.25;5044036;28;20443;-50
2023/03/22 09:52:43;;;;;;;3.50;2.42;;;;;;;21.79;41.57;96032.13;5046272;28;19967;-50
2023/03/22 09:55:19;;;;;;;4.55;2.75;;;;;;;21.97;40.36;96020.53;5043484;28;20542;-48
2023/03/22 09:57:54;;;;;;;4.68;3.13;;;;;;;22.35;39.67;96029.34;5042611;28;20538;-51
2023/03/22 10:00:27;;;;;;;3.95;2.40;;;;;;;22.45;40.38;96024.25;5042996;28;20081;-46
2023/03/22 10:03:02;;;;;;;3.53;1.90;;;;;;;22.34;40.13;96016.97;5047517;28;20478;-47
2023/03/22 10:05:36;;;;;;;5.68;2.75;;;;;;;22.90;39.91;96007.59;5041156;28;20080;-52
2023/03/22 10:08:25;;;;;;;4.00;2.30;;;;;;;23.03;38.53;96004.69;5043651;28;20083;-48
2023/03/22 10:10:54;;;;;;;3.50;2.30;;;;;;;22.61;39.29;96002.06;5043942;28;20096;-53
2023/03/22 10:13:26;;;;;;;2.47;1.57;;;;;;;22.28;38.32;96013.31;5043634;28;20084;-45
2023/03/22 10:15:57;;;;;;;4.38;2.75;;;;;;;22.86;37.72;95993.78;5042103;28;21090;-53
2023/03/22 10:18:28;;;;;;;2.20;1.48;;;;;;;22.31;39.29;96010.19;5044854;28;20081;-46
2023/03/22 10:21:00;;;;;;;3.28;2.38;;;;;;;22.43;38.78;95992.22;5040386;28;20103;-53
2023/03/22 10:23:31;;;;;;;3.45;2.20;;;;;;;22.27;40.37;96004.47;5042327;28;20085;-54
2023/03/22 10:26:03;;;;;;;2.55;1.35;;;;;;;22.25;39.82;96009.22;5043170;28;20072;-52
2023/03/22 10:28:35;;;;;;;4.40;2.20;;;;;;;23.11;38.91;95992.75;5043061;28;20523;-50
2023/03/22 10:31:04;;;;;;;3.65;2.42;;;;;;;22.93;38.51;95999.09;5038647;28;20553;-53
2023/03/22 10:33:38;;;;;;;5.15;2.95;;;;;;;23.30;37.59;95991.59;5041224;28;20108;-49
2023/03/22 10:36:12;;;;;;;5.75;3.05;;;;;;;24.20;36.25;95976.69;5040328;28;20092;-50
2023/03/22 10:38:45;;;;;;;4.68;2.63;;;;;;;24.04;36.57;95989.03;5041946;28;20068;-54
2023/03/22 10:41:17;;;;;;;3.40;2.70;;;;;;;24.13;36.29;95984.09;5042704;28;20645;-48
2023/03/22 10:43:48;;;;;;;4.68;3.15;;;;;;;24.35;35.60;95985.03;5042661;28;20508;-47
2023/03/22 10:46:19;;;;;;;5.45;2.72;;;;;;;24.33;36.39;95989.84;5042053;28;20072;-49
2023/03/22 10:48:50;;;;;;;5.70;2.88;;;;;;;24.48;34.72;95983.94;5040370;28;20080;-50
2023/03/22 10:51:24;;;;;;;4.28;2.50;;;;;;;23.39;38.74;95983.94;5046299;28;20088;-49
2023/03/22 10:53:54;;;;;;;4.25;2.13;;;;;;;23.28;38.08;95980.22;5041775;28;20080;-47
2023/03/22 10:56:25;;;;;;;3.53;2.00;;;;;;;23.83;37.20;95979.75;5046349;28;20546;-54
2023/03/22 10:58:55;;;;;;;4.10;2.30;;;;;;;23.76;36.82;95981.78;5038875;28;20084;-52
2023/03/22 11:01:28;;;;;;;3.13;1.85;;;;;;;23.46;37.23;95982.75;5041505;28;20088;-52
2023/03/22 11:03:59;;;;;;;3.90;2.50;;;;;;;23.69;36.89;95984.63;5045445;28;20076;-53
2023/03/22 11:06:31;;;;;;;3.60;2.35;;;;;;;24.15;36.50;95977.38;5038980;28;20093;-50
2023/03/22 11:09:02;;;;;;;3.58;1.88;;;;;;;23.78;37.59;95985.06;5040769;28;20091;-48
2023/03/22 11:11:47;;;;;;;3.78;2.60;;;;;;;24.39;35.63;95986.16;5041234;28;20087;-47
2023/03/22 11:14:19;;;;;;;5.45;2.35;;;;;;;24.29;35.17;95977.09;5047160;28;20088;-53
2023/03/22 11:16:52;;;;;;;3.80;2.42;;;;;;;24.09;37.25;95974.88;5045682;28;20125;-45
2023/03/22 11:19:25;;;;;;;8.05;2.00;;;;;;;23.70;37.22;95977.34;5043080;28;20108;-48
2023/03/22 11:21:54;;;;;;;3.03;2.13;;;;;;;24.14;35.43;95975.75;5046027;28;20080;-46
2023/03/22 11:24:24;;;;;;;6.03;3.10;;;;;;;24.71;34.43;95971.34;5047562;28;20081;-49
2023/03/22 11:27:05;;;;;;;3.10;2.55;;;;;;;24.48;36.36;95973.16;5048465;28;20095;-47
2023/03/22 11:29:40;;;;;;;3.25;2.28;;;;;;;24.10;36.44;95963.84;5046934;28;20079;-48
2023/03/22 11:32:21;;;;;;;3.65;1.95;;;;;;;23.69;35.70;95975.72;5047014;28;20111;-51
2023/03/22 11:34:59;;;;;;;3.17;1.70;;;;;;;24.43;35.30;95962.25;5043939;28;20076;-48
2023/03/22 11:37:28;;;;;;;3.47;2.08;;;;;;;24.31;38.65;95961.50;5046629;28;20092;-50
2023/03/22 11:40:00;;;;;;;2.75;1.98;;;;;;;24.52;37.70;95950.03;5048250;28;20526;-48
2023/03/22 11:42:30;;;;;;;6.57;2.35;;;;;;;24.32;37.98;95944.25;5046853;28;20099;-46
2023/03/22 11:44:58;;;;;;;3.92;2.53;;;;;;;24.71;35.64;95947.91;5046030;28;20095;-58